createdAt,value
2022-10-29T00:02:35.756Z,13.34
2022-10-29T00:08:15.669Z,13.26
2022-10-29T00:13:56.644Z,13.16
2022-10-29T00:19:36.688Z,13.02
2022-10-29T00:25:23.697Z,12.93
2022-10-29T00:31:03.635Z,12.88
2022-10-29T00:36:44.677Z,12.81
2022-10-29T00:42:30.696Z,12.69
2022-10-29T00:48:10.718Z,12.58
2022-10-29T00:53:55.732Z,12.50
2022-10-29T00:59:35.676Z,12.36
2022-10-29T01:05:17.730Z,12.19
2022-10-29T01:11:08.669Z,12.00
2022-10-29T01:16:56.675Z,11.83
2022-10-29T01:22:42.744Z,11.69
2022-10-29T01:28:36.832Z,11.56
2022-10-29T01:34:26.731Z,11.54
2022-10-29T01:40:15.767Z,11.52
2022-10-29T01:46:02.750Z,11.48
2022-10-29T01:51:45.731Z,11.38
2022-10-29T01:57:46.781Z,11.30
2022-10-29T02:03:39.697Z,11.25
2022-10-29T02:09:26.701Z,11.16
2022-10-29T02:15:11.869Z,11.04
2022-10-29T02:20:57.713Z,10.97
2022-10-29T02:26:37.689Z,10.99
2022-10-29T02:32:17.725Z,10.94
2022-10-29T02:37:57.753Z,10.90
2022-10-29T02:43:37.725Z,10.91
2022-10-29T02:49:17.751Z,10.98
2022-10-29T02:54:57.760Z,11.01
2022-10-29T03:00:37.759Z,11.06
2022-10-29T03:06:24.778Z,11.07
2022-10-29T03:12:04.799Z,11.04
2022-10-29T03:17:44.972Z,11.20
2022-10-29T03:23:24.835Z,11.41
2022-10-29T03:29:11.743Z,11.45
2022-10-29T03:34:55.966Z,11.50
2022-10-29T03:40:38.778Z,11.62
2022-10-29T03:46:18.763Z,11.72
2022-10-29T03:51:58.787Z,11.72
2022-10-29T03:57:38.856Z,11.69
2022-10-29T04:03:18.812Z,11.68
2022-10-29T04:08:59.779Z,11.66
2022-10-29T04:14:44.508Z,11.67
2022-10-29T04:20:45.342Z,11.73
2022-10-29T04:32:24.733Z,12.07
2022-10-29T04:38:04.803Z,12.23
2022-10-29T04:43:45.957Z,12.36
2022-10-29T04:49:25.984Z,12.56
2022-10-29T04:55:05.817Z,12.72
2022-10-29T05:00:45.889Z,12.85
2022-10-29T05:06:25.821Z,12.99
2022-10-29T05:12:05.813Z,13.09
2022-10-29T05:17:49.833Z,13.14
2022-10-29T05:23:29.789Z,13.14
2022-10-29T05:29:09.864Z,13.15
2022-10-29T05:34:49.871Z,13.21
2022-10-29T05:40:29.851Z,13.28
2022-10-29T05:46:09.916Z,13.35
2022-10-29T05:51:49.780Z,13.44
2022-10-29T05:57:29.834Z,13.53
2022-10-29T06:03:09.866Z,13.58
2022-10-29T06:08:49.818Z,13.61
2022-10-29T06:14:29.846Z,13.68
2022-10-29T06:20:09.903Z,13.74
2022-10-29T06:25:49.867Z,13.76
2022-10-29T06:31:36.820Z,13.82
2022-10-29T06:37:16.837Z,13.89
2022-10-29T06:42:56.824Z,13.98
2022-10-29T06:48:37.808Z,14.11
2022-10-29T06:54:17.825Z,14.33
2022-10-29T06:59:57.945Z,14.59
2022-10-29T07:05:37.825Z,14.87
2022-10-29T07:11:17.968Z,15.16
2022-10-29T07:17:16.891Z,15.49
2022-10-29T07:23:01.911Z,15.85
2022-10-29T07:28:42.043Z,16.75
2022-10-29T07:34:21.891Z,18.64
2022-10-29T07:40:01.924Z,20.66
2022-10-29T07:45:41.905Z,22.42
2022-10-29T07:51:21.933Z,24.02
2022-10-29T07:56:59.908Z,25.08
2022-10-29T08:02:39.892Z,25.29
2022-10-29T08:08:23.871Z,24.96
2022-10-29T08:14:04.906Z,24.15
2022-10-29T08:19:44.917Z,23.39
2022-10-29T08:25:26.007Z,23.05
2022-10-29T08:31:05.921Z,22.64
2022-10-29T08:36:45.901Z,22.12
2022-10-29T08:42:37.963Z,21.62
2022-10-29T08:48:37.948Z,21.25
2022-10-29T08:54:30.255Z,21.24
2022-10-29T09:00:18.983Z,22.15
2022-10-29T09:06:20.899Z,23.25
2022-10-29T09:12:12.934Z,23.38
2022-10-29T09:18:02.004Z,22.99
2022-10-29T09:23:59.040Z,22.71
2022-10-29T09:29:55.027Z,22.54
2022-10-29T09:35:51.921Z,22.15
2022-10-29T09:41:32.951Z,21.80
2022-10-29T09:47:19.952Z,21.68
2022-10-29T09:53:01.979Z,22.05
2022-10-29T09:58:43.016Z,22.32
2022-10-29T10:04:32.948Z,21.67
2022-10-29T10:10:14.937Z,20.69
2022-10-29T10:16:01.991Z,19.97
2022-10-29T10:21:44.983Z,19.45
2022-10-29T10:27:42.992Z,19.00
2022-10-29T10:33:36.030Z,18.77
2022-10-29T10:39:16.014Z,18.49
2022-10-29T10:45:03.220Z,18.19
2022-10-29T10:50:46.981Z,17.93
2022-10-29T10:56:34.032Z,17.97
2022-10-29T11:02:16.162Z,18.60
2022-10-29T11:08:02.004Z,19.23
2022-10-29T11:13:46.010Z,19.70
2022-10-29T11:19:36.803Z,19.78
2022-10-29T11:25:19.130Z,19.62
2022-10-29T11:31:05.127Z,19.33
2022-10-29T11:36:50.026Z,19.03
2022-10-29T11:42:30.023Z,18.77
2022-10-29T11:54:18.075Z,18.39
2022-10-29T12:00:15.081Z,18.28
2022-10-29T12:06:00.227Z,18.27
2022-10-29T12:11:47.052Z,18.46
2022-10-29T12:17:32.110Z,18.51
2022-10-29T12:23:17.339Z,18.44
2022-10-29T12:29:06.032Z,18.34
2022-10-29T12:34:52.078Z,18.24
2022-10-29T12:40:44.178Z,18.13
2022-10-29T12:46:33.232Z,18.07
2022-10-29T12:52:17.081Z,18.04
2022-10-29T12:57:57.098Z,17.89
2022-10-29T13:04:11.044Z,17.78
2022-10-29T13:09:52.092Z,17.66
2022-10-29T13:15:30.224Z,17.64
2022-10-29T13:21:10.208Z,17.69
2022-10-29T13:27:11.075Z,17.63
2022-10-29T13:32:52.280Z,17.49
2022-10-29T13:38:32.098Z,17.41
2022-10-29T13:44:16.270Z,17.34
2022-10-29T13:49:59.213Z,17.30
2022-10-29T13:55:39.107Z,17.20
2022-10-29T14:01:28.238Z,17.05
2022-10-29T14:07:13.062Z,16.90
2022-10-29T14:12:55.438Z,16.76
2022-10-29T14:18:40.139Z,16.66
2022-10-29T14:24:22.127Z,16.54
2022-10-29T14:30:02.131Z,16.38
2022-10-29T14:35:43.140Z,16.20
2022-10-29T14:41:21.171Z,16.06
2022-10-29T14:47:09.321Z,15.95
2022-10-29T14:52:53.826Z,15.79
2022-10-29T14:58:39.116Z,15.60
2022-10-29T15:04:19.209Z,15.37
2022-10-29T15:10:00.155Z,15.20
2022-10-29T15:15:45.180Z,15.10
2022-10-29T15:21:25.127Z,14.99
2022-10-29T15:27:09.223Z,14.88
2022-10-29T15:32:49.182Z,14.78
2022-10-29T15:38:54.225Z,14.74
2022-10-29T15:44:50.191Z,14.66
2022-10-29T15:50:32.174Z,14.59
2022-10-29T15:56:12.191Z,14.55
2022-10-29T16:01:52.274Z,14.54
2022-10-29T16:07:32.181Z,14.49
2022-10-29T16:13:13.192Z,14.41
2022-10-29T16:18:53.448Z,14.33
2022-10-29T16:24:34.232Z,14.29
2022-10-29T16:30:14.248Z,14.25
2022-10-29T16:35:54.236Z,14.20
2022-10-29T16:41:35.184Z,14.17
2022-10-29T16:47:15.213Z,14.19
2022-10-29T16:52:55.240Z,14.16
2022-10-29T16:58:35.203Z,14.08
2022-10-29T17:04:16.266Z,14.01
2022-10-29T17:09:56.264Z,13.96
2022-10-29T17:15:37.205Z,13.89
2022-10-29T17:21:18.592Z,13.82
2022-10-29T17:26:58.199Z,13.78
2022-10-29T17:32:39.753Z,13.78
2022-10-29T17:38:19.233Z,13.76
2022-10-29T17:43:59.380Z,13.73
2022-10-29T17:49:40.743Z,13.71
2022-10-29T17:55:24.292Z,13.75
2022-10-29T18:31:31.029Z,14.28
2022-10-29T18:37:11.020Z,14.26
2022-10-29T18:42:51.077Z,13.95
2022-10-29T18:54:16.109Z,13.43
2022-10-29T18:59:56.096Z,13.18
2022-10-29T19:05:36.113Z,13.00
2022-10-29T19:11:26.049Z,12.87
2022-10-29T19:17:06.081Z,12.76
2022-10-29T19:22:47.083Z,12.62
2022-10-29T19:28:27.112Z,12.55
2022-10-29T19:34:09.117Z,12.48
2022-10-29T19:39:49.081Z,12.44
2022-10-29T19:45:29.214Z,12.35
2022-10-29T19:51:09.144Z,12.26
2022-10-29T19:56:50.191Z,12.23
2022-10-29T20:02:30.295Z,12.18
2022-10-29T20:08:13.066Z,12.08
2022-10-29T20:13:57.082Z,11.97
2022-10-29T20:19:37.185Z,11.88
2022-10-29T20:25:23.999Z,11.72
2022-10-29T20:31:04.133Z,11.68
2022-10-29T20:36:46.339Z,11.67
2022-10-29T20:42:26.138Z,11.70
2022-10-29T20:48:06.118Z,11.67
2022-10-29T20:53:46.144Z,11.67
2022-10-29T20:59:26.165Z,11.74
2022-10-29T21:05:06.139Z,11.79
2022-10-29T21:10:46.193Z,11.78
2022-10-29T21:16:36.193Z,11.75
2022-10-29T21:22:16.238Z,11.75
2022-10-29T21:27:56.511Z,11.81
2022-10-29T21:33:43.278Z,11.92
2022-10-29T21:39:23.151Z,11.98
2022-10-29T21:45:03.163Z,11.96
2022-10-29T21:50:43.216Z,11.97
2022-10-29T21:57:59.214Z,12.06
2022-10-29T22:04:21.278Z,12.11
2022-10-29T22:10:01.226Z,12.07
2022-10-29T22:15:41.232Z,12.02
2022-10-29T22:21:25.210Z,11.98
2022-10-29T22:27:05.251Z,11.91
2022-10-29T22:32:45.204Z,11.90
2022-10-29T22:38:25.219Z,11.98
2022-10-29T22:44:08.404Z,12.09
2022-10-29T22:49:48.229Z,12.12
2022-10-29T22:55:29.229Z,12.10
2022-10-29T23:01:18.410Z,12.05
2022-10-29T23:07:01.775Z,12.04
2022-10-29T23:12:42.288Z,12.01
2022-10-29T23:18:23.236Z,12.01
2022-10-29T23:24:03.255Z,12.02
2022-10-29T23:29:43.343Z,12.00
2022-10-29T23:35:24.267Z,11.95
2022-10-29T23:41:02.317Z,11.95
2022-10-29T23:46:42.297Z,12.00
2022-10-29T23:52:22.340Z,12.06
2022-10-29T23:58:02.304Z,12.11
